Time;durP1;ratioP1;P1;durP2;ratioP2;P2;SDS_P1;SDS_P2;PMS_P1;PMS_P2;Temp;Humidity;BMP_temperature;BMP_pressure;BME280_temperature;BME280_humidity;BME280_pressure;Samples;Min_cycle;Max_cycle;Signal;HPM_P1;HPM_P2
2021/09/23 00:00:46;;;;;;;9.95;8.45;;;;;;;11.43;59.35;100585.25;4328377;33;36996;-95
2021/09/23 00:04:01;;;;;;;10.82;8.13;;;;;;;11.35;59.71;100589.53;4329469;33;34971;-96
2021/09/23 00:06:53;;;;;;;10.20;7.28;;;;;;;11.21;60.05;100575.50;4341687;33;35363;-96
2021/09/23 00:09:53;;;;;;;12.90;9.45;;;;;;;11.32;59.84;100588.63;4310937;33;34179;-95
2021/09/23 00:12:48;;;;;;;10.88;7.97;;;;;;;11.28;59.66;100582.53;4304902;33;34504;-96
2021/09/23 00:15:38;;;;;;;11.75;7.80;;;;;;;11.32;59.70;100589.50;4295395;33;35209;-96
2021/09/23 00:22:12;;;;;;;9.95;8.15;;;;;;;11.16;60.94;100595.41;4297533;33;34511;-96
2021/09/23 00:24:56;;;;;;;11.98;8.77;;;;;;;11.34;60.36;100594.69;4278586;33;33499;-96
2021/09/23 00:28:02;;;;;;;14.02;9.98;;;;;;;11.35;60.32;100599.06;4264813;33;33637;-96
2021/09/23 00:30:56;;;;;;;15.13;10.27;;;;;;;11.17;61.15;100602.34;4290383;33;33522;-96
2021/09/23 00:33:38;;;;;;;12.32;9.05;;;;;;;11.26;61.10;100601.59;4286775;33;32703;-96
2021/09/23 00:36:34;;;;;;;13.60;9.57;;;;;;;11.38;60.97;100602.59;4308195;33;33511;-96
2021/09/23 00:39:14;;;;;;;15.48;9.40;;;;;;;11.44;60.84;100610.44;4337968;33;33433;-95
2021/09/23 00:42:04;;;;;;;14.27;10.05;;;;;;;11.51;60.55;100620.06;4344866;33;33990;-96
2021/09/23 00:44:57;;;;;;;13.98;9.85;;;;;;;11.42;60.60;100617.38;4320371;33;32274;-95
2021/09/23 00:47:43;;;;;;;11.38;9.25;;;;;;;11.27;60.88;100619.81;4319714;33;32501;-95
2021/09/23 00:50:28;;;;;;;14.13;10.82;;;;;;;11.29;60.85;100612.91;4312083;33;33837;-95
2021/09/23 00:53:26;;;;;;;11.63;9.50;;;;;;;11.43;60.52;100624.31;4320138;33;34287;-96
2021/09/23 00:56:09;;;;;;;15.40;10.07;;;;;;;11.35;60.56;100625.12;4314372;33;32818;-96
2021/09/23 00:58:51;;;;;;;12.25;10.13;;;;;;;11.48;60.25;100625.22;4298547;33;33149;-96
2021/09/23 01:01:34;;;;;;;14.35;9.85;;;;;;;11.58;59.60;100611.44;4345300;33;33585;-96
2021/09/23 01:04:29;;;;;;;13.23;9.68;;;;;;;11.47;59.87;100615.69;4304451;33;33506;-95
2021/09/23 01:07:23;;;;;;;13.93;10.85;;;;;;;11.43;59.84;100611.28;4309145;33;33649;-95
2021/09/23 01:10:19;;;;;;;12.65;9.63;;;;;;;11.46;59.84;100603.50;4312165;33;33422;-96
2021/09/23 01:13:12;;;;;;;13.60;9.77;;;;;;;11.48;59.53;100609.59;4316480;33;34987;-96
2021/09/23 01:15:55;;;;;;;14.02;10.55;;;;;;;11.48;59.55;100612.22;4290248;33;33528;-96
2021/09/23 01:18:40;;;;;;;13.65;10.35;;;;;;;11.35;59.91;100599.94;4305188;33;32747;-96
2021/09/23 01:21:34;;;;;;;15.25;10.82;;;;;;;11.25;60.38;100594.62;4313854;33;34579;-95
2021/09/23 01:24:28;;;;;;;14.93;11.18;;;;;;;11.45;59.74;100582.69;4313312;33;34132;-95
2021/09/23 01:27:21;;;;;;;;;;;;;;;11.37;60.00;100592.13;4295686;33;33691;-96
2021/09/23 01:30:27;;;;;;;12.93;9.83;;;;;;;11.29;60.06;100591.22;4326193;33;20369;-96
2021/09/23 01:33:48;;;;;;;13.32;9.70;;;;;;;11.54;59.41;100583.63;4315816;33;34238;-96
2021/09/23 01:36:40;;;;;;;11.55;9.55;;;;;;;11.49;59.22;100579.22;4303538;33;33669;-95
2021/09/23 01:39:37;;;;;;;15.65;11.23;;;;;;;11.33;59.56;100580.84;4308700;33;33285;-95
2021/09/23 01:42:21;;;;;;;15.10;11.00;;;;;;;11.31;59.96;100579.06;4304771;33;32028;-95
2021/09/23 01:45:14;;;;;;;14.27;10.52;;;;;;;11.32;60.03;100568.66;4277697;33;33136;-96
2021/09/23 01:47:57;;;;;;;15.95;11.02;;;;;;;11.12;60.55;100571.94;4300200;33;33873;-96
2021/09/23 01:50:49;;;;;;;14.50;10.60;;;;;;;11.13;60.49;100571.94;4305064;33;33548;-95
2021/09/23 01:53:47;;;;;;;14.00;10.52;;;;;;;11.17;60.74;100573.72;4339566;33;33810;-96
2021/09/23 01:56:40;;;;;;;15.18;10.50;;;;;;;11.14;60.91;100575.44;4331785;33;35012;-95
2021/09/23 01:59:38;;;;;;;14.38;10.98;;;;;;;11.19;60.65;100572.03;4365477;27;34407;-95
2021/09/23 02:02:22;;;;;;;15.23;11.25;;;;;;;11.22;60.54;100569.44;4342835;33;34541;-96
2021/09/23 02:05:11;;;;;;;15.18;11.18;;;;;;;11.00;61.21;100580.50;4306192;33;32362;-96
2021/09/23 02:07:54;;;;;;;18.62;10.93;;;;;;;10.88;61.89;100565.66;4325729;33;33345;-96
2021/09/23 02:10:51;;;;;;;15.77;11.00;;;;;;;11.11;61.38;100560.66;4300960;33;33626;-95
2021/09/23 02:13:48;;;;;;;19.25;11.27;;;;;;;10.96;61.71;100557.88;4345626;33;35187;-96
2021/09/23 02:16:31;;;;;;;14.18;10.73;;;;;;;11.13;61.78;100563.25;4322337;33;32859;-96
2021/09/23 02:19:30;;;;;;;14.40;11.00;;;;;;;11.07;62.01;100560.62;4323340;33;33037;-95
2021/09/23 02:25:43;;;;;;;15.98;11.10;;;;;;;10.98;62.45;100552.72;4358006;32;34693;-95
2021/09/23 02:28:34;;;;;;;15.20;11.30;;;;;;;11.05;62.38;100551.91;4343286;33;33880;-95
2021/09/23 02:31:36;;;;;;;15.60;11.70;;;;;;;10.92;62.80;100550.03;4330235;33;34110;-95
2021/09/23 02:34:19;;;;;;;15.60;11.20;;;;;;;10.89;63.03;100556.97;4313836;33;34756;-95
2021/09/23 02:37:07;;;;;;;15.48;10.40;;;;;;;10.90;63.26;100552.63;4338290;33;34193;-96
2021/09/23 02:39:50;;;;;;;15.05;11.15;;;;;;;11.08;63.00;100559.78;4321993;33;32623;-95
2021/09/23 02:42:51;;;;;;;14.73;11.32;;;;;;;11.13;62.46;100561.53;4313422;33;32501;-96
2021/09/23 02:45:39;;;;;;;12.90;9.90;;;;;;;11.28;62.12;100556.47;4331000;33;33979;-95
2021/09/23 02:48:22;;;;;;;15.45;10.60;;;;;;;11.31;61.82;100548.69;4307330;33;33683;-95
2021/09/23 02:51:06;;;;;;;13.93;10.25;;;;;;;11.30;61.84;100551.28;4296972;33;33208;-93
2021/09/23 02:54:03;;;;;;;13.00;10.15;;;;;;;11.29;61.73;100552.16;4333563;33;35314;-95
2021/09/23 02:57:05;;;;;;;13.52;10.40;;;;;;;11.43;61.48;100547.94;4334411;33;35382;-95
2021/09/23 03:00:02;;;;;;;12.77;10.27;;;;;;;11.28;61.63;100546.06;4314788;33;34538;-95
2021/09/23 03:02:50;;;;;;;13.52;10.55;;;;;;;11.33;61.73;100544.38;4325001;33;34257;-96
2021/09/23 03:05:47;;;;;;;11.70;9.82;;;;;;;11.38;61.51;100553.09;4325736;33;34731;-96
2021/09/23 03:08:38;;;;;;;15.85;11.15;;;;;;;11.42;61.16;100556.59;4324853;33;34007;-96
2021/09/23 03:11:29;;;;;;;12.60;10.27;;;;;;;11.45;61.34;100554.91;4328869;33;32903;-95
2021/09/23 03:14:20;;;;;;;12.18;9.93;;;;;;;11.22;61.70;100550.34;4324262;33;33300;-96
2021/09/23 03:17:16;;;;;;;16.70;10.45;;;;;;;11.43;61.39;100540.12;4319895;33;34218;-96
2021/09/23 03:20:16;;;;;;;13.20;9.77;;;;;;;11.42;61.36;100543.56;4307798;33;35511;-95
2021/09/23 03:22:57;;;;;;;14.13;10.32;;;;;;;11.41;61.50;100540.09;4309802;33;33281;-95
2021/09/23 03:25:58;;;;;;;13.18;9.88;;;;;;;11.31;61.76;100534.81;4298772;33;33716;-96
2021/09/23 03:28:42;;;;;;;13.82;10.27;;;;;;;11.13;62.25;100540.72;4308919;33;32931;-96
2021/09/23 03:31:40;;;;;;;13.45;10.45;;;;;;;11.18;62.15;100540.75;4324053;33;35044;-96
2021/09/23 03:34:29;;;;;;;14.32;10.88;;;;;;;11.05;62.67;100541.50;4288158;33;34328;-95
2021/09/23 03:37:14;;;;;;;14.15;10.30;;;;;;;10.94;63.07;100543.09;4331640;33;32194;-96
2021/09/23 03:39:57;;;;;;;16.15;11.60;;;;;;;10.94;63.12;100538.78;4334315;33;33675;-95
2021/09/23 03:42:44;;;;;;;16.00;11.30;;;;;;;11.00;63.06;100538.87;4307395;33;33770;-95
2021/09/23 03:45:36;;;;;;;13.98;10.55;;;;;;;10.96;63.02;100536.22;4283767;33;32757;-95
2021/09/23 03:48:24;;;;;;;14.55;10.85;;;;;;;10.72;63.93;100536.84;4307033;33;33181;-96
2021/09/23 03:51:09;;;;;;;15.40;11.18;;;;;;;10.78;63.70;100529.97;4320932;33;34182;-96
2021/09/23 03:53:53;;;;;;;14.63;10.40;;;;;;;10.93;63.17;100534.47;4323074;33;33566;-96
2021/09/23 03:56:44;;;;;;;16.10;10.73;;;;;;;10.90;63.28;100531.81;4316125;33;34029;-95
2021/09/23 03:59:26;;;;;;;14.10;10.95;;;;;;;11.00;62.80;100538.87;4337098;33;32683;-96
2021/09/23 04:02:08;;;;;;;14.20;11.15;;;;;;;10.92;63.15;100542.22;4314428;33;34138;-94
2021/09/23 04:05:07;;;;;;;16.50;11.12;;;;;;;10.88;63.24;100537.00;4292399;33;35172;-96
2021/09/23 04:08:14;;;;;;;15.30;11.40;;;;;;;10.96;62.86;100539.66;4326857;33;20116;-96
2021/09/23 04:11:18;;;;;;;14.80;10.73;;;;;;;11.24;62.10;100538.22;4306725;32;20152;-96
2021/09/23 04:14:12;;;;;;;15.05;10.93;;;;;;;11.02;62.71;100537.12;4284276;33;34081;-95
2021/09/23 04:16:58;;;;;;;15.00;10.48;;;;;;;11.14;62.26;100524.25;4316082;33;34165;-95
2021/09/23 04:19:55;;;;;;;16.25;11.18;;;;;;;11.11;62.39;100521.59;4276743;33;34194;-94
2021/09/23 04:22:40;;;;;;;15.35;11.38;;;;;;;10.95;62.78;100519.72;4281133;33;33086;-96
2021/09/23 04:25:38;;;;;;;15.68;10.80;;;;;;;10.91;62.68;100524.87;4304864;33;34108;-96
2021/09/23 04:28:34;;;;;;;19.20;11.48;;;;;;;11.00;62.62;100528.44;4292944;33;33913;-95
2021/09/23 04:31:19;;;;;;;15.30;10.80;;;;;;;11.13;62.32;100527.69;4297925;33;32363;-96
2021/09/23 04:34:22;;;;;;;19.33;11.80;;;;;;;11.12;62.14;100543.31;4338943;33;20112;-95
2021/09/23 04:37:05;;;;;;;17.33;11.88;;;;;;;10.87;62.99;100535.25;4320929;33;32785;-95
2021/09/23 04:39:51;;;;;;;16.15;11.23;;;;;;;10.96;62.70;100542.28;4300882;33;33821;-96
2021/09/23 04:42:34;;;;;;;15.88;11.38;;;;;;;10.94;62.52;100543.09;4319985;33;32759;-95
2021/09/23 04:45:30;;;;;;;17.25;12.18;;;;;;;11.06;62.17;100544.12;4339092;33;34434;-95
2021/09/23 04:48:32;;;;;;;16.90;12.37;;;;;;;11.10;62.27;100540.66;4319607;33;34893;-96
2021/09/23 04:51:31;;;;;;;17.83;12.05;;;;;;;11.29;61.93;100541.75;4330736;33;35027;-95
2021/09/23 05:00:55;;;;;;;;;;;;;;;11.58;61.54;100537.59;4327350;33;20100;-95
2021/09/23 05:03:59;;;;;;;16.58;11.15;;;;;;;11.58;61.48;100530.66;4319809;33;33634;-96
2021/09/23 05:07:20;;;;;;;13.73;10.88;;;;;;;11.63;61.44;100537.63;918444;27;20399;-88
2021/09/23 05:09:48;;;;;;;14.50;11.00;;;;;;;11.77;61.04;100529.09;4303189;33;31309;-94
2021/09/23 05:12:39;;;;;;;15.27;11.32;;;;;;;11.66;60.96;100532.47;4286982;33;20675;-93
2021/09/23 05:15:12;;;;;;;;;;;;;;;11.71;61.18;100536.88;4305990;33;34547;-92
2021/09/23 05:18:16;;;;;;;15.57;11.43;;;;;;;11.84;60.96;100537.84;4269855;33;34547;-93
2021/09/23 05:21:14;;;;;;;15.27;11.23;;;;;;;11.92;60.79;100537.00;4261957;33;33179;-95
2021/09/23 05:24:12;;;;;;;13.77;9.27;;;;;;;11.95;61.09;100547.47;4276535;33;32578;-94
2021/09/23 05:26:52;;;;;;;14.57;10.35;;;;;;;12.14;67.52;100551.06;4288086;33;33714;-95
2021/09/23 05:29:35;;;;;;;19.35;10.20;;;;;;;12.38;63.46;100564.22;4302117;33;33576;-94
2021/09/23 05:32:19;;;;;;;16.75;10.48;;;;;;;12.70;59.88;100559.97;4316670;33;32888;-94
2021/09/23 05:35:01;;;;;;;18.27;10.38;;;;;;;12.79;59.59;100559.13;4291849;33;34194;-94
2021/09/23 05:37:42;;;;;;;16.50;10.63;;;;;;;12.97;59.68;100566.16;4265370;33;34093;-94
2021/09/23 05:40:12;;;;;;;14.82;9.88;;;;;;;12.87;60.00;100566.13;4280079;33;34715;-93
2021/09/23 05:43:20;;;;;;;13.10;9.93;;;;;;;12.97;59.66;100569.63;4284572;33;33187;-92
2021/09/23 05:45:49;;;;;;;12.30;9.48;;;;;;;13.08;59.67;100561.84;4280891;33;34112;-93
2021/09/23 05:48:53;;;;;;;13.93;9.10;;;;;;;13.10;59.30;100562.75;4323867;33;33762;-92
2021/09/23 05:51:21;;;;;;;11.32;8.60;;;;;;;13.25;58.99;100557.50;4309706;33;34252;-93
2021/09/23 05:53:57;;;;;;;15.80;8.65;;;;;;;13.16;58.87;100554.91;4311368;33;32717;-93
2021/09/23 05:56:45;;;;;;;14.20;9.10;;;;;;;13.49;58.10;100557.53;4316470;33;33284;-92
2021/09/23 05:59:27;;;;;;;10.68;8.55;;;;;;;13.72;57.65;100554.88;4325463;33;33765;-88
2021/09/23 06:01:55;;;;;;;11.82;7.85;;;;;;;13.89;57.18;100550.50;4335050;33;33466;-92
2021/09/23 06:04:53;;;;;;;10.82;8.40;;;;;;;13.88;56.07;100552.25;4312993;33;32839;-93
2021/09/23 06:07:21;;;;;;;12.00;9.23;;;;;;;13.69;56.02;100550.56;4321142;33;33755;-92
2021/09/23 06:09:49;;;;;;;9.82;7.43;;;;;;;13.88;55.74;100540.94;4332567;33;34763;-89
2021/09/23 06:12:17;;;;;;;10.45;8.30;;;;;;;14.37;55.01;100546.94;4309133;33;34182;-94
2021/09/23 06:15:10;;;;;;;10.82;8.57;;;;;;;14.57;54.21;100545.13;4333454;33;33527;-93
2021/09/23 06:17:55;;;;;;;9.77;7.87;;;;;;;14.74;54.66;100543.25;4333457;33;33965;-94
2021/09/23 06:20:25;;;;;;;10.45;8.23;;;;;;;15.03;52.49;100540.47;4333914;33;33820;-95
2021/09/23 06:23:06;;;;;;;9.48;7.85;;;;;;;15.27;52.26;100545.56;4328162;33;33757;-94
2021/09/23 06:25:56;;;;;;;11.88;7.60;;;;;;;15.13;51.64;100535.19;4317197;33;32995;-95
2021/09/23 06:28:38;;;;;;;11.63;8.20;;;;;;;15.18;52.04;100536.00;4294275;33;33316;-94
2021/09/23 06:31:47;;;;;;;10.60;7.70;;;;;;;15.36;51.32;100548.97;4318121;33;34980;-94
2021/09/23 06:34:35;;;;;;;9.77;7.45;;;;;;;15.27;51.95;100542.94;4306345;33;34362;-94
2021/09/23 06:37:24;;;;;;;9.43;7.28;;;;;;;15.50;51.31;100544.53;4314390;33;32647;-95
2021/09/23 06:40:06;;;;;;;9.30;7.12;;;;;;;15.67;51.21;100551.38;4277489;33;34503;-93
2021/09/23 06:42:48;;;;;;;10.40;8.25;;;;;;;15.44;51.25;100549.81;4318529;33;34168;-93
2021/09/23 06:45:42;;;;;;;9.48;7.43;;;;;;;15.62;51.17;100554.03;4303098;33;33768;-92
2021/09/23 06:48:10;;;;;;;10.57;7.00;;;;;;;15.63;50.88;100553.16;4318485;33;34331;-94
2021/09/23 06:51:05;;;;;;;9.77;7.70;;;;;;;15.55;50.44;100540.09;4295060;33;33923;-93
2021/09/23 06:53:54;;;;;;;11.10;7.90;;;;;;;15.74;51.04;100524.19;4281957;33;34117;-94
2021/09/23 06:56:52;;;;;;;11.57;7.55;;;;;;;15.76;50.52;100530.31;4308513;33;34165;-94
2021/09/23 06:59:39;;;;;;;8.50;6.75;;;;;;;15.89;50.51;100526.69;4293473;33;32842;-93
2021/09/23 07:02:35;;;;;;;9.10;7.12;;;;;;;15.94;50.77;100535.37;4307152;33;33271;-94
2021/09/23 07:05:19;;;;;;;8.95;7.45;;;;;;;16.09;50.14;100535.22;4307930;33;33598;-94
2021/09/23 07:08:18;;;;;;;10.20;6.95;;;;;;;15.91;50.20;100538.91;4274424;33;33729;-94
2021/09/23 07:11:22;;;;;;;9.35;7.05;;;;;;;16.03;49.75;100530.03;4279773;33;33401;-93
2021/09/23 07:14:30;;;;;;;9.90;7.07;;;;;;;16.04;50.25;100534.41;4291476;33;33630;-95
2021/09/23 07:17:23;;;;;;;8.82;6.43;;;;;;;16.11;49.68;100533.44;4282193;33;34058;-93
2021/09/23 07:20:16;;;;;;;8.77;7.35;;;;;;;16.24;50.24;100529.78;4228825;33;33840;-95
2021/09/23 07:22:56;;;;;;;10.50;7.47;;;;;;;16.14;50.90;100523.78;4232389;33;32885;-96
2021/09/23 07:25:56;;;;;;;11.12;7.35;;;;;;;16.27;50.60;100533.25;4258620;33;32559;-95
2021/09/23 07:28:51;;;;;;;9.43;6.87;;;;;;;16.24;50.00;100529.78;4276893;33;33912;-96
2021/09/23 07:31:44;;;;;;;12.48;6.57;;;;;;;16.16;49.68;100526.41;4278411;33;34784;-94
2021/09/23 07:34:29;;;;;;;8.00;6.43;;;;;;;15.95;50.71;100524.00;4267324;33;32185;-96
2021/09/23 07:37:32;;;;;;;8.27;5.60;;;;;;;16.17;50.68;100522.88;4269235;33;33149;-95
2021/09/23 07:40:14;;;;;;;7.62;6.00;;;;;;;16.37;50.37;100520.00;4305766;33;34189;-95
2021/09/23 07:43:10;;;;;;;6.97;5.53;;;;;;;16.35;49.73;100522.66;4328091;33;34163;-95
2021/09/23 07:45:57;;;;;;;7.55;5.70;;;;;;;16.51;50.39;100526.88;4334002;33;33663;-95
2021/09/23 07:48:58;;;;;;;9.40;5.97;;;;;;;16.67;49.55;100520.53;4345675;33;33402;-96
2021/09/23 07:52:01;;;;;;;8.25;6.18;;;;;;;16.68;49.76;100522.28;4305815;33;20144;-92
2021/09/23 07:54:32;;;;;;;7.85;5.60;;;;;;;16.80;48.95;100524.72;4292638;33;35237;-90
2021/09/23 07:57:00;;;;;;;6.55;5.75;;;;;;;16.71;50.81;100522.22;4268072;33;34798;-88
2021/09/23 07:59:30;;;;;;;7.93;5.50;;;;;;;16.96;50.80;100514.84;4293214;33;34430;-93
2021/09/23 08:02:17;;;;;;;11.75;5.82;;;;;;;17.25;50.23;100511.78;4277163;33;33588;-87
2021/09/23 08:04:52;;;;;;;10.52;6.20;;;;;;;17.62;48.91;100514.69;4279368;33;34082;-89
2021/09/23 08:07:20;;;;;;;8.63;5.22;;;;;;;17.70;48.17;100518.94;4265625;33;33815;-95
2021/09/23 08:10:07;;;;;;;7.57;5.25;;;;;;;17.86;48.39;100519.50;4292501;33;34034;-94
2021/09/23 08:12:50;;;;;;;7.50;5.47;;;;;;;18.04;46.90;100529.72;4301271;33;34023;-95
2021/09/23 08:15:43;;;;;;;8.63;5.68;;;;;;;18.24;46.19;100523.16;4301805;33;34186;-96
2021/09/23 08:18:26;;;;;;;8.90;6.35;;;;;;;18.15;47.11;100523.34;4293967;33;32166;-95
2021/09/23 08:21:22;;;;;;;10.27;6.53;;;;;;;18.10;46.86;100522.56;4293129;33;34105;-96
2021/09/23 08:24:05;;;;;;;6.78;5.30;;;;;;;17.85;47.53;100516.00;4310339;33;34070;-95
2021/09/23 08:26:47;;;;;;;9.07;6.45;;;;;;;18.13;46.92;100504.09;4323567;33;33714;-96
2021/09/23 08:29:29;;;;;;;8.23;5.55;;;;;;;18.14;47.25;100505.78;4288175;33;32377;-94
2021/09/23 08:32:25;;;;;;;6.37;5.32;;;;;;;17.96;47.99;100506.16;4289665;33;33935;-95
2021/09/23 08:35:10;;;;;;;6.53;5.28;;;;;;;18.01;48.38;100501.69;4324424;33;33955;-95
2021/09/23 08:38:07;;;;;;;8.10;5.68;;;;;;;17.98;48.04;100509.62;4308655;33;33301;-95
2021/09/23 08:41:03;;;;;;;8.43;5.35;;;;;;;18.09;48.40;100505.00;4304589;33;33103;-94
2021/09/23 08:43:56;;;;;;;8.85;6.12;;;;;;;18.36;48.11;100500.97;4327855;33;33610;-95
2021/09/23 08:46:49;;;;;;;10.07;6.10;;;;;;;18.26;48.32;100492.38;4285999;33;33863;-95
2021/09/23 08:49:43;;;;;;;7.65;6.00;;;;;;;18.56;48.06;100495.31;4304630;33;34167;-93
2021/09/23 08:52:36;;;;;;;9.02;5.55;;;;;;;18.58;47.15;100490.88;4281585;33;32669;-96
2021/09/23 08:55:27;;;;;;;8.25;5.72;;;;;;;18.70;47.70;100490.63;4281004;33;33312;-95
2021/09/23 08:58:24;;;;;;;7.47;5.47;;;;;;;18.84;47.43;100494.69;4279146;33;34308;-94
2021/09/23 09:01:20;;;;;;;9.75;5.35;;;;;;;18.89;47.05;100497.22;4285762;33;33395;-94
2021/09/23 09:04:13;;;;;;;9.27;6.07;;;;;;;18.83;48.01;100485.03;4291441;33;34110;-92
2021/09/23 09:06:56;;;;;;;7.07;5.53;;;;;;;18.86;47.25;100478.81;4313351;33;34226;-93
2021/09/23 09:09:44;;;;;;;8.60;5.80;;;;;;;18.99;46.85;100471.50;4317903;33;33941;-92
2021/09/23 09:12:39;;;;;;;8.90;6.15;;;;;;;19.14;46.88;100466.72;4308142;33;34173;-93
2021/09/23 09:15:43;;;;;;;8.30;5.40;;;;;;;19.29;46.94;100471.63;4303244;33;33491;-93
2021/09/23 09:18:40;;;;;;;7.80;6.25;;;;;;;19.36;46.52;100480.25;4305400;33;33742;-94
2021/09/23 09:21:41;;;;;;;7.68;6.15;;;;;;;19.36;45.58;100475.88;4349767;32;33627;-93
2021/09/23 09:24:51;;;;;;;9.27;6.68;;;;;;;19.39;45.80;100472.28;4319513;33;33433;-93
2021/09/23 09:27:40;;;;;;;9.02;5.18;;;;;;;19.25;46.47;100475.25;4320888;33;33301;-91
2021/09/23 09:30:36;;;;;;;6.87;5.05;;;;;;;19.26;46.31;100466.41;4283984;33;33519;-94
2021/09/23 09:33:38;;;;;;;11.40;6.12;;;;;;;19.36;46.32;100467.94;4275370;33;33931;-92
2021/09/23 09:36:24;;;;;;;9.07;5.45;;;;;;;19.46;46.58;100466.81;4288224;33;34258;-92
2021/09/23 09:39:09;;;;;;;5.20;4.45;;;;;;;19.69;45.26;100465.31;4272547;33;33142;-93
2021/09/23 09:41:46;;;;;;;8.00;5.25;;;;;;;19.99;44.52;100464.50;4251125;33;33523;-95
2021/09/23 09:44:34;;;;;;;6.40;4.65;;;;;;;19.68;44.15;100474.16;4268809;33;33764;-93
2021/09/23 09:47:33;;;;;;;7.72;4.85;;;;;;;19.86;44.11;100463.09;4273116;33;33550;-92
2021/09/23 09:50:15;;;;;;;10.57;5.32;;;;;;;20.07;44.15;100451.94;4334261;33;34193;-92
2021/09/23 09:53:01;;;;;;;8.23;4.07;;;;;;;20.16;44.23;100451.66;4289521;33;34089;-92
2021/09/23 09:55:53;;;;;;;5.47;4.05;;;;;;;20.20;44.69;100450.69;4327558;33;34767;-95
2021/09/23 09:58:35;;;;;;;6.28;3.42;;;;;;;20.07;43.73;100446.66;4320503;33;33403;-95
2021/09/23 10:01:17;;;;;;;5.65;3.08;;;;;;;20.17;43.51;100442.84;4297122;33;33014;-95
2021/09/23 10:04:11;;;;;;;5.10;2.92;;;;;;;20.14;43.78;100435.88;4316972;33;33409;-95
2021/09/23 10:06:55;;;;;;;7.87;2.95;;;;;;;20.30;42.64;100438.94;4276478;33;33948;-94
2021/09/23 10:09:56;;;;;;;6.15;3.12;;;;;;;20.43;42.86;100439.47;4294595;33;33564;-94
2021/09/23 10:12:41;;;;;;;4.68;3.28;;;;;;;20.36;42.97;100433.50;4295853;33;33720;-93
2021/09/23 10:15:30;;;;;;;5.87;3.30;;;;;;;20.50;42.41;100441.88;4295477;33;33509;-93
2021/09/23 10:18:12;;;;;;;4.97;3.17;;;;;;;20.48;41.86;100442.84;4288814;33;34046;-89
2021/09/23 10:20:42;;;;;;;5.78;3.60;;;;;;;20.35;41.97;100431.75;4289465;33;34730;-89
2021/09/23 10:23:11;;;;;;;5.55;3.65;;;;;;;20.37;42.43;100431.75;4316081;33;34039;-89
2021/09/23 10:25:42;;;;;;;7.25;3.47;;;;;;;20.14;43.50;100433.25;4305532;33;33221;-89
2021/09/23 10:28:11;;;;;;;9.75;3.50;;;;;;;20.33;42.88;100423.03;4318853;33;35423;-93
2021/09/23 10:30:43;;;;;;;7.65;3.28;;;;;;;20.38;44.38;100425.53;4305801;33;34923;-90
2021/09/23 10:33:11;;;;;;;7.25;3.87;;;;;;;20.64;42.65;100429.09;4302910;33;32208;-89
2021/09/23 10:35:39;;;;;;;6.07;3.40;;;;;;;20.65;43.59;100425.56;4304483;33;33390;-89
2021/09/23 10:38:09;;;;;;;7.37;3.00;;;;;;;20.78;42.66;100413.66;4293553;33;33910;-92
2021/09/23 10:40:38;;;;;;;8.45;3.40;;;;;;;20.68;43.32;100422.81;4292165;33;33297;-89
2021/09/23 10:43:13;;;;;;;6.72;3.58;;;;;;;20.75;41.01;100407.63;4293022;33;33755;-89
2021/09/23 10:45:43;;;;;;;9.38;3.40;;;;;;;20.41;42.92;100412.22;4305361;33;35004;-89
2021/09/23 10:48:11;;;;;;;6.45;3.10;;;;;;;20.58;43.41;100407.28;4306542;33;35536;-91
2021/09/23 10:50:40;;;;;;;8.10;3.55;;;;;;;20.63;42.06;100411.53;4295813;33;33739;-91
2021/09/23 10:53:11;;;;;;;5.70;3.35;;;;;;;20.52;43.99;100418.03;4295310;33;30623;-90
2021/09/23 10:55:42;;;;;;;6.93;3.95;;;;;;;20.61;43.19;100413.34;4307886;33;33587;-91
2021/09/23 10:58:13;;;;;;;6.35;3.62;;;;;;;20.93;42.71;100410.53;4307690;33;33990;-92
2021/09/23 11:01:23;;;;;;;7.40;3.35;;;;;;;21.01;42.43;100407.66;4309723;33;34004;-90
2021/09/23 11:03:53;;;;;;;8.07;3.65;;;;;;;21.03;42.40;100404.94;4318726;33;33815;-90
2021/09/23 11:06:30;;;;;;;7.75;3.50;;;;;;;20.48;42.69;100411.13;4318790;33;33474;-90
2021/09/23 11:09:21;;;;;;;6.05;2.97;;;;;;;20.76;43.14;100402.28;4319559;33;34749;-90
2021/09/23 11:11:51;;;;;;;7.82;3.08;;;;;;;21.19;42.33;100398.25;4319428;33;33398;-90
2021/09/23 11:14:21;;;;;;;7.85;3.30;;;;;;;21.03;42.80;100394.38;4295660;33;33085;-91
2021/09/23 11:16:52;;;;;;;7.25;3.22;;;;;;;20.77;42.15;100396.09;4319693;33;33802;-92
2021/09/23 11:19:22;;;;;;;7.57;3.45;;;;;;;21.08;42.48;100398.62;4307671;33;34412;-91
2021/09/23 11:21:54;;;;;;;8.88;3.85;;;;;;;20.86;41.57;100397.56;4319567;33;34244;-90
2021/09/23 11:24:24;;;;;;;8.85;3.37;;;;;;;21.01;42.66;100394.44;4307212;33;33023;-90
2021/09/23 11:26:52;;;;;;;9.20;4.35;;;;;;;21.04;42.13;100396.09;4319651;33;33782;-91
2021/09/23 11:29:36;;;;;;;7.25;3.45;;;;;;;21.07;41.96;100391.59;4319419;33;34942;-91
2021/09/23 11:32:04;;;;;;;9.40;3.78;;;;;;;20.64;43.08;100392.09;4319412;33;34146;-94
2021/09/23 11:34:40;;;;;;;8.05;3.90;;;;;;;20.68;42.44;100385.78;4319634;33;34389;-93
2021/09/23 11:37:09;;;;;;;8.93;3.75;;;;;;;20.67;43.54;100373.50;4321515;33;33310;-92
2021/09/23 11:40:02;;;;;;;6.75;3.33;;;;;;;20.77;42.95;100361.72;4318754;33;34798;-92
2021/09/23 11:42:34;;;;;;;8.70;3.60;;;;;;;20.54;45.40;100366.88;4318774;33;34482;-92
2021/09/23 11:45:15;;;;;;;9.10;4.03;;;;;;;20.37;43.41;100358.63;4306641;33;32454;-92
2021/09/23 11:48:49;;;;;;;12.45;4.05;;;;;;;20.65;43.02;100362.13;4318677;33;34706;-90
2021/09/23 11:51:33;;;;;;;8.85;3.08;;;;;;;20.61;42.97;100363.13;4306152;33;34927;-92
2021/09/23 11:54:32;;;;;;;7.80;2.87;;;;;;;20.50;43.33;100362.59;4304924;33;34608;-90
2021/09/23 12:00:51;;;;;;;7.05;2.80;;;;;;;21.27;41.36;100338.03;4301119;33;33581;-91
2021/09/23 12:03:56;;;;;;;;;;;;;;;21.52;42.23;100331.78;4295191;33;34535;-91
2021/09/23 12:06:40;;;;;;;8.52;2.60;;;;;;;21.84;40.00;100333.28;4302624;33;34729;-91
2021/09/23 12:09:15;;;;;;;8.53;2.93;;;;;;;21.82;40.93;100331.59;4292729;33;33496;-91
2021/09/23 12:11:54;;;;;;;7.05;2.83;;;;;;;21.75;40.93;100330.09;4315745;33;33411;-91
2021/09/23 12:14:41;;;;;;;7.18;2.60;;;;;;;21.92;40.14;100333.84;4304179;33;36300;-91
2021/09/23 12:18:29;;;;;;;5.28;2.55;;;;;;;21.33;40.32;100321.91;4300543;33;34261;-91
2021/09/23 12:21:29;;;;;;;8.38;3.05;;;;;;;21.45;41.33;100330.28;4314423;33;34354;-90
2021/09/23 12:24:04;;;;;;;5.87;2.50;;;;;;;21.57;40.86;100310.44;4280692;33;33402;-92
2021/09/23 12:26:41;;;;;;;7.78;2.90;;;;;;;21.46;40.63;100304.69;4304819;33;35134;-90
2021/09/23 12:29:47;;;;;;;6.20;2.80;;;;;;;21.33;40.56;100304.25;4316363;33;34849;-92
2021/09/23 12:32:41;;;;;;;10.75;3.45;;;;;;;21.40;40.80;100305.78;4280930;33;32728;-91
2021/09/23 12:35:22;;;;;;;8.70;2.78;;;;;;;21.54;40.44;100281.44;4303830;33;33645;-91
2021/09/23 12:37:52;;;;;;;8.00;3.40;;;;;;;21.61;40.60;100282.94;4304180;33;33525;-90
2021/09/23 12:40:31;;;;;;;8.38;3.17;;;;;;;21.60;40.65;100275.94;4315090;33;33537;-92
2021/09/23 12:43:16;;;;;;;9.32;4.20;;;;;;;21.77;40.97;100270.00;4304032;33;33217;-94
2021/09/23 12:46:16;;;;;;;9.55;3.50;;;;;;;21.72;40.55;100267.53;4315377;33;33356;-92
2021/09/23 12:49:16;;;;;;;10.65;3.90;;;;;;;21.64;40.34;100266.94;4316694;33;34835;-90
2021/09/23 12:51:56;;;;;;;8.75;3.22;;;;;;;21.61;39.76;100264.41;4304094;33;34718;-90
2021/09/23 12:55:07;;;;;;;10.02;3.60;;;;;;;21.45;41.45;100250.91;4303790;33;33125;-91
2021/09/23 12:58:14;;;;;;;8.90;3.90;;;;;;;21.48;40.82;100255.22;4315585;33;33429;-91
2021/09/23 13:00:51;;;;;;;9.05;3.60;;;;;;;21.47;41.41;100248.19;4284433;33;35494;-89
2021/09/23 13:03:35;;;;;;;14.35;3.80;;;;;;;21.27;42.33;100248.94;4289388;33;33305;-92
2021/09/23 13:06:09;;;;;;;7.57;3.65;;;;;;;21.22;41.70;100247.37;4289814;33;33836;-94
2021/09/23 13:09:09;;;;;;;12.23;3.83;;;;;;;21.07;41.95;100258.50;4289677;33;34141;-94
2021/09/23 13:12:13;;;;;;;9.75;3.50;;;;;;;20.78;42.59;100249.78;4288422;33;35861;-93